Time;durP1;ratioP1;P1;durP2;ratioP2;P2;SDS_P1;SDS_P2;PMS_P1;PMS_P2;Temp;Humidity;BMP_temperature;BMP_pressure;BME280_temperature;BME280_humidity;BME280_pressure;Samples;Min_cycle;Max_cycle;Signal;HPM_P1;HPM_P2
2021/07/26 00:02:16;;;;;;;3.50;3.30;;;16.10;98.20;;;;;;5073998;28;20029;-59
2021/07/26 00:04:44;;;;;;;3.10;3.00;;;16.30;98.00;;;;;;5073487;28;20077;-57
2021/07/26 00:07:12;;;;;;;3.90;3.80;;;16.40;97.30;;;;;;5073214;28;20031;-59
2021/07/26 00:09:39;;;;;;;4.00;3.70;;;16.50;97.10;;;;;;5073239;28;20132;-60
2021/07/26 00:12:08;;;;;;;4.18;3.88;;;16.60;96.70;;;;;;5072812;28;20032;-60
2021/07/26 00:14:35;;;;;;;3.80;3.60;;;16.80;96.60;;;;;;5073173;28;20090;-58
2021/07/26 00:17:03;;;;;;;3.70;3.50;;;17.00;96.70;;;;;;5073065;28;20048;-59
2021/07/26 00:19:30;;;;;;;3.47;3.30;;;16.70;96.00;;;;;;5073916;28;20024;-59
2021/07/26 00:21:58;;;;;;;3.40;3.30;;;16.60;96.80;;;;;;5073002;28;20021;-59
2021/07/26 00:24:25;;;;;;;3.15;3.05;;;16.80;96.50;;;;;;5072919;28;20492;-57
2021/07/26 00:26:52;;;;;;;3.30;3.10;;;16.90;96.40;;;;;;5073139;28;20017;-60
2021/07/26 00:29:20;;;;;;;3.20;3.10;;;17.10;96.10;;;;;;5072962;28;20028;-59
2021/07/26 00:31:47;;;;;;;3.17;2.97;;;17.20;96.10;;;;;;5072924;28;20051;-57
2021/07/26 00:34:21;;;;;;;3.67;3.47;;;17.20;96.30;;;;;;5073013;28;20090;-55
2021/07/26 00:36:52;;;;;;;3.28;3.17;;;17.00;96.50;;;;;;5072722;28;20029;-54
2021/07/26 00:39:22;;;;;;;3.60;3.40;;;17.20;96.10;;;;;;5072784;28;20029;-56
2021/07/26 00:41:51;;;;;;;3.72;3.28;;;17.30;96.00;;;;;;5072681;28;20025;-56
2021/07/26 00:44:20;;;;;;;3.63;3.42;;;17.40;95.60;;;;;;5072516;28;20124;-57
2021/07/26 00:46:48;;;;;;;4.10;3.80;;;17.50;95.60;;;;;;5072251;28;20319;-57
2021/07/26 00:49:16;;;;;;;3.65;3.53;;;17.60;95.90;;;;;;5072554;28;20025;-55
2021/07/26 00:51:55;;;;;;;3.90;3.70;;;17.60;95.00;;;;;;5072737;28;20024;-58
2021/07/26 00:54:34;;;;;;;4.32;3.90;;;17.70;95.30;;;;;;5072728;28;20021;-59
2021/07/26 00:57:05;;;;;;;3.78;3.50;;;17.80;95.00;;;;;;5072502;28;20032;-57
2021/07/26 00:59:34;;;;;;;3.50;3.40;;;18.00;94.00;;;;;;5072863;28;20441;-57
2021/07/26 01:02:01;;;;;;;3.00;2.80;;;18.30;93.80;;;;;;5073118;28;20032;-56
2021/07/26 01:04:29;;;;;;;3.53;3.05;;;18.10;93.50;;;;;;5072342;28;20087;-57
2021/07/26 01:06:57;;;;;;;2.97;2.70;;;18.10;93.30;;;;;;5072303;28;20116;-58
2021/07/26 01:09:24;;;;;;;3.00;2.90;;;18.10;93.70;;;;;;5072409;28;20481;-60
2021/07/26 01:11:52;;;;;;;2.92;2.83;;;18.10;93.30;;;;;;5072408;28;20027;-60
2021/07/26 01:14:19;;;;;;;3.00;2.80;;;18.00;93.30;;;;;;5072467;28;20048;-58
2021/07/26 01:16:48;;;;;;;3.00;2.85;;;18.00;93.40;;;;;;5072504;28;20032;-60
2021/07/26 01:19:16;;;;;;;3.00;2.90;;;18.20;93.90;;;;;;5072423;28;20024;-58
2021/07/26 01:21:44;;;;;;;3.97;3.67;;;18.50;93.10;;;;;;5072443;28;20021;-60
2021/07/26 01:24:12;;;;;;;2.90;2.80;;;18.70;92.80;;;;;;5072316;28;20024;-60
2021/07/26 01:26:39;;;;;;;3.08;2.90;;;18.70;92.50;;;;;;5076290;28;20103;-59
2021/07/26 01:29:10;;;;;;;2.85;2.75;;;18.80;92.40;;;;;;5076167;28;20087;-58
2021/07/26 01:31:38;;;;;;;2.95;2.85;;;18.70;92.30;;;;;;5076404;28;20020;-57
2021/07/26 01:34:05;;;;;;;2.85;2.75;;;18.50;92.70;;;;;;5076083;28;20069;-60
2021/07/26 01:36:33;;;;;;;3.17;2.97;;;18.10;92.60;;;;;;5076417;28;20029;-60
2021/07/26 01:39:00;;;;;;;3.13;2.97;;;18.00;93.40;;;;;;5075910;28;20370;-59
2021/07/26 01:41:35;;;;;;;2.90;2.80;;;18.00;93.10;;;;;;5076039;28;20074;-59
2021/07/26 01:44:13;;;;;;;2.70;2.60;;;17.90;93.00;;;;;;5075964;28;20037;-60
2021/07/26 01:47:02;;;;;;;2.70;2.60;;;17.90;93.00;;;;;;5075765;28;20109;-60
2021/07/26 01:49:41;;;;;;;2.90;2.80;;;17.90;92.70;;;;;;5075835;28;20017;-59
2021/07/26 01:52:09;;;;;;;3.10;2.90;;;17.80;93.00;;;;;;5075906;28;20021;-59
2021/07/26 01:54:37;;;;;;;3.20;3.10;;;17.90;93.30;;;;;;5075638;28;20029;-59
2021/07/26 01:57:05;;;;;;;3.20;3.10;;;17.80;93.30;;;;;;5075462;28;20055;-58
2021/07/26 01:59:32;;;;;;;3.30;3.20;;;17.70;93.60;;;;;;5075561;28;20366;-59
2021/07/26 02:02:00;;;;;;;3.50;3.30;;;17.70;93.70;;;;;;5074232;28;20111;-58
2021/07/26 02:04:27;;;;;;;3.20;3.10;;;17.90;93.80;;;;;;5075393;28;20021;-59
2021/07/26 02:06:54;;;;;;;2.60;2.60;;;18.10;93.50;;;;;;5075440;28;20021;-59
2021/07/26 02:09:22;;;;;;;2.80;2.70;;;18.20;93.20;;;;;;5075725;28;20020;-59
2021/07/26 02:11:49;;;;;;;2.70;2.60;;;18.10;92.30;;;;;;5075477;28;20025;-59
2021/07/26 02:14:17;;;;;;;3.00;2.90;;;18.10;92.60;;;;;;5075520;28;20021;-60
2021/07/26 02:16:50;;;;;;;2.70;2.60;;;18.20;92.50;;;;;;5075589;28;20107;-60
2021/07/26 02:19:17;;;;;;;2.40;2.30;;;18.40;92.60;;;;;;5075526;28;20021;-59
2021/07/26 02:21:44;;;;;;;1.80;1.70;;;18.80;92.20;;;;;;5075206;28;20029;-59
2021/07/26 02:24:12;;;;;;;2.50;2.40;;;19.10;92.00;;;;;;5075264;28;20017;-59
2021/07/26 02:26:39;;;;;;;2.70;2.60;;;19.20;92.00;;;;;;5075075;28;20619;-59
2021/07/26 02:29:06;;;;;;;2.70;2.60;;;19.30;91.80;;;;;;5075227;28;20012;-59
2021/07/26 02:31:34;;;;;;;2.70;2.60;;;19.60;91.00;;;;;;5075560;28;20092;-59
2021/07/26 02:34:01;;;;;;;2.80;2.70;;;19.60;91.10;;;;;;5075397;28;20021;-59
2021/07/26 02:36:29;;;;;;;2.50;2.50;;;19.90;90.80;;;;;;5074752;28;20028;-59
2021/07/26 02:38:56;;;;;;;2.80;2.70;;;19.90;90.60;;;;;;5075020;28;20078;-58
2021/07/26 02:41:23;;;;;;;2.70;2.60;;;20.20;90.20;;;;;;5075408;28;20039;-60
2021/07/26 02:43:50;;;;;;;2.80;2.70;;;20.30;90.00;;;;;;5074971;28;20108;-60
2021/07/26 02:46:18;;;;;;;2.78;2.58;;;20.30;90.30;;;;;;5074887;28;20433;-61
2021/07/26 02:48:45;;;;;;;2.50;2.40;;;20.40;90.20;;;;;;5074996;28;20091;-63
2021/07/26 02:51:13;;;;;;;2.55;2.45;;;20.40;89.90;;;;;;5074959;28;20012;-60
2021/07/26 02:53:43;;;;;;;2.60;2.50;;;20.50;90.10;;;;;;5074823;28;20017;-60
2021/07/26 02:56:11;;;;;;;2.70;2.60;;;20.00;89.60;;;;;;5074568;28;20083;-60
2021/07/26 02:58:39;;;;;;;2.85;2.75;;;20.10;90.90;;;;;;5074710;28;20564;-60
2021/07/26 03:01:11;;;;;;;2.88;2.78;;;19.90;90.00;;;;;;5074907;28;20062;-60
2021/07/26 03:03:39;;;;;;;2.88;2.75;;;19.70;90.00;;;;;;5074633;28;20024;-59
2021/07/26 03:06:17;;;;;;;3.00;2.90;;;19.30;90.30;;;;;;5074497;28;20024;-55
2021/07/26 03:08:45;;;;;;;2.80;2.70;;;19.10;90.50;;;;;;5074790;28;20032;-59
2021/07/26 03:11:13;;;;;;;3.10;3.00;;;19.20;90.50;;;;;;5074475;28;20028;-59
2021/07/26 03:13:41;;;;;;;2.35;2.30;;;19.20;90.30;;;;;;5074255;28;20032;-60
2021/07/26 03:16:11;;;;;;;2.40;2.30;;;19.20;90.40;;;;;;5074386;28;20056;-58
2021/07/26 03:18:39;;;;;;;2.90;2.80;;;19.20;90.80;;;;;;5074317;28;20017;-58
2021/07/26 03:21:12;;;;;;;2.50;2.40;;;19.10;90.90;;;;;;5074338;28;20549;-58
2021/07/26 03:23:39;;;;;;;2.70;2.60;;;19.10;91.20;;;;;;5074194;28;20035;-58
2021/07/26 03:26:07;;;;;;;2.80;2.70;;;19.10;90.70;;;;;;5074141;28;20048;-58
2021/07/26 03:28:35;;;;;;;2.70;2.60;;;19.20;90.50;;;;;;5074113;28;20427;-59
2021/07/26 03:31:03;;;;;;;2.90;2.70;;;19.20;91.20;;;;;;5072788;28;20020;-59
2021/07/26 03:33:30;;;;;;;2.90;2.80;;;19.30;91.20;;;;;;5072725;28;20028;-58
2021/07/26 03:35:57;;;;;;;3.10;2.90;;;19.40;90.90;;;;;;5073997;28;20119;-57
2021/07/26 03:38:25;;;;;;;2.60;2.50;;;19.40;90.60;;;;;;5073840;28;20028;-57
2021/07/26 03:40:53;;;;;;;2.60;2.50;;;19.30;90.20;;;;;;5073919;28;20096;-58
2021/07/26 03:43:21;;;;;;;3.40;2.70;;;19.20;89.00;;;;;;5073823;28;20086;-59
2021/07/26 03:45:48;;;;;;;2.88;2.78;;;19.20;89.60;;;;;;5073729;28;20044;-58
2021/07/26 03:48:15;;;;;;;2.90;2.80;;;19.00;88.20;;;;;;5072984;28;20021;-59
2021/07/26 03:50:43;;;;;;;2.80;2.60;;;19.10;88.60;;;;;;5073729;28;20450;-57
2021/07/26 03:53:10;;;;;;;2.55;2.50;;;19.00;88.10;;;;;;5073551;28;20099;-58
2021/07/26 03:55:37;;;;;;;2.72;2.63;;;19.10;88.20;;;;;;5073426;28;20051;-59
2021/07/26 03:58:05;;;;;;;2.70;2.60;;;19.20;88.40;;;;;;5073535;28;20023;-59
2021/07/26 04:00:33;;;;;;;3.20;3.10;;;19.10;88.60;;;;;;5073525;28;20103;-59
2021/07/26 04:05:39;;;;;;;3.00;2.80;;;19.30;89.60;;;;;;5072135;28;20023;-58
2021/07/26 04:08:16;;;;;;;2.70;2.60;;;19.40;88.50;;;;;;5073395;28;20511;-58
2021/07/26 04:11:08;;;;;;;2.80;2.70;;;19.40;88.50;;;;;;5073264;28;20035;-59
2021/07/26 04:13:33;;;;;;;2.70;2.60;;;19.30;89.20;;;;;;5072872;28;20037;-61
2021/07/26 04:16:01;;;;;;;2.90;2.80;;;19.20;88.00;;;;;;5073135;28;20032;-59
2021/07/26 04:18:29;;;;;;;3.00;2.90;;;19.10;88.40;;;;;;5073124;28;20020;-60
2021/07/26 04:20:57;;;;;;;3.10;2.90;;;19.30;88.70;;;;;;5073066;28;20442;-60
2021/07/26 04:23:25;;;;;;;2.90;2.80;;;19.30;88.60;;;;;;5073055;28;20108;-62
2021/07/26 04:25:52;;;;;;;2.90;2.80;;;19.30;88.20;;;;;;5072948;28;20025;-61
2021/07/26 04:28:20;;;;;;;3.38;3.20;;;19.30;86.60;;;;;;5073021;28;20485;-62
2021/07/26 04:30:47;;;;;;;2.90;2.80;;;19.30;87.10;;;;;;5072977;28;20017;-62
2021/07/26 04:33:14;;;;;;;3.00;2.80;;;19.10;86.30;;;;;;5073085;28;20040;-59
2021/07/26 04:35:42;;;;;;;2.85;2.75;;;19.10;86.20;;;;;;5072925;28;20108;-59
2021/07/26 04:38:09;;;;;;;2.80;2.60;;;19.00;86.30;;;;;;5073176;28;20086;-59
2021/07/26 04:40:36;;;;;;;2.90;2.80;;;18.80;87.00;;;;;;5072878;28;20017;-59
2021/07/26 04:43:04;;;;;;;2.70;2.60;;;18.90;86.60;;;;;;5072765;28;20024;-59
2021/07/26 05:14:22;;;;;;;3.25;2.13;;;20.70;86.80;;;;;;5090403;27;20440;-65
2021/07/26 05:16:50;;;;;;;1.92;1.83;;;18.80;84.20;;;;;;5090478;28;20111;-63
2021/07/26 05:19:17;;;;;;;1.77;1.67;;;18.70;85.50;;;;;;5090709;28;20020;-64
2021/07/26 05:21:44;;;;;;;1.80;1.70;;;18.50;84.30;;;;;;5089374;28;20032;-59
2021/07/26 05:24:12;;;;;;;1.90;1.80;;;18.40;85.40;;;;;;5088794;28;20029;-63
2021/07/26 05:26:39;;;;;;;1.75;1.67;;;18.30;85.80;;;;;;5090283;28;20521;-63
2021/07/26 05:29:06;;;;;;;1.83;1.80;;;18.30;86.10;;;;;;5090231;28;20054;-64
2021/07/26 05:31:34;;;;;;;2.00;1.65;;;18.20;86.00;;;;;;5090057;28;20406;-60
2021/07/26 05:34:01;;;;;;;2.13;2.03;;;18.10;86.20;;;;;;5089983;28;20077;-66
2021/07/26 05:36:28;;;;;;;2.13;1.92;;;18.00;86.40;;;;;;5090002;28;20017;-66
2021/07/26 05:38:56;;;;;;;2.15;1.98;;;17.90;86.90;;;;;;5090019;28;20024;-63
2021/07/26 05:41:23;;;;;;;2.00;1.90;;;17.80;87.60;;;;;;5090042;28;20024;-63
2021/07/26 05:43:50;;;;;;;1.90;1.80;;;17.70;87.40;;;;;;5089918;28;20347;-64
2021/07/26 05:46:18;;;;;;;1.98;1.88;;;17.70;87.50;;;;;;5090030;28;20024;-63
2021/07/26 05:48:45;;;;;;;1.73;1.63;;;17.60;87.60;;;;;;5089766;28;20030;-60
2021/07/26 05:51:12;;;;;;;2.08;1.92;;;17.60;87.60;;;;;;5089651;28;20032;-64
2021/07/26 05:53:39;;;;;;;1.83;1.73;;;17.50;87.80;;;;;;5089544;28;20035;-63
2021/07/26 05:56:10;;;;;;;2.10;2.00;;;17.50;87.90;;;;;;5089732;28;20016;-64
2021/07/26 05:58:42;;;;;;;2.20;2.10;;;17.50;88.20;;;;;;5089672;28;20020;-64
2021/07/26 06:01:54;;;;;;;2.00;1.90;;;17.40;88.60;;;;;;5089728;28;20129;-63
2021/07/26 06:03:57;;;;;;;2.00;1.90;;;17.40;88.20;;;;;;5078404;28;20115;-63
2021/07/26 06:06:24;;;;;;;2.20;2.10;;;17.30;88.20;;;;;;5089295;28;20481;-63
2021/07/26 06:08:51;;;;;;;2.20;2.10;;;17.40;87.90;;;;;;5089322;28;20016;-61
2021/07/26 06:11:18;;;;;;;2.60;2.40;;;17.30;88.40;;;;;;5089264;28;20020;-62
2021/07/26 06:13:46;;;;;;;2.40;2.20;;;17.30;88.60;;;;;;5088990;28;20044;-61
2021/07/26 06:16:13;;;;;;;2.08;1.90;;;17.20;89.20;;;;;;5089256;28;20020;-62
2021/07/26 06:18:40;;;;;;;2.20;2.10;;;17.20;89.00;;;;;;5089210;28;20469;-62
2021/07/26 06:21:08;;;;;;;2.03;1.92;;;17.10;89.50;;;;;;5089225;28;20028;-62
2021/07/26 06:23:36;;;;;;;1.90;1.80;;;17.10;89.60;;;;;;5087749;28;20020;-62
2021/07/26 06:26:07;;;;;;;1.90;1.80;;;17.10;89.50;;;;;;5075233;28;20052;-62
2021/07/26 06:28:35;;;;;;;2.10;2.00;;;17.10;89.50;;;;;;5075525;28;20036;-62
2021/07/26 06:31:03;;;;;;;2.45;2.30;;;17.00;90.00;;;;;;5075419;28;20191;-62
2021/07/26 06:33:34;;;;;;;3.22;2.08;;;17.00;90.30;;;;;;5075261;28;20020;-62
2021/07/26 06:36:04;;;;;;;;;;;16.90;90.20;;;;;;5075717;28;20025;-62
2021/07/26 06:41:07;;;;;;;2.28;2.17;;;16.80;90.50;;;;;;5312045;23;20108;-78
2021/07/26 06:43:35;;;;;;;2.05;2.05;;;16.70;90.60;;;;;;4996455;28;20053;-76
2021/07/26 06:46:08;;;;;;;2.40;2.30;;;16.60;90.60;;;;;;4996122;28;20026;-76
2021/07/26 06:48:36;;;;;;;2.10;2.00;;;16.70;90.80;;;;;;4996271;28;20041;-75
2021/07/26 06:51:06;;;;;;;2.10;2.00;;;16.70;90.60;;;;;;4996110;28;20109;-76
2021/07/26 06:53:34;;;;;;;2.03;1.90;;;16.60;90.90;;;;;;4995066;28;20089;-76
2021/07/26 06:56:09;;;;;;;2.20;2.10;;;16.60;90.90;;;;;;4996424;28;20022;-77
2021/07/26 06:58:37;;;;;;;2.20;2.10;;;16.50;91.30;;;;;;4996163;28;20038;-77
2021/07/26 07:01:12;;;;;;;2.75;2.55;;;16.50;91.40;;;;;;4994629;28;20121;-77
2021/07/26 07:03:46;;;;;;;3.35;2.33;;;16.50;91.50;;;;;;4995730;28;20363;-77
2021/07/26 07:06:15;;;;;;;2.75;2.60;;;16.40;91.60;;;;;;4995693;28;20105;-76
2021/07/26 07:08:44;;;;;;;2.75;2.60;;;16.40;91.80;;;;;;4994559;28;20113;-76
2021/07/26 07:13:44;;;;;;;2.72;2.60;;;16.30;92.10;;;;;;4974677;28;20043;-71
2021/07/26 07:16:20;;;;;;;2.40;2.30;;;16.20;92.30;;;;;;4976045;28;20027;-71
2021/07/26 07:18:49;;;;;;;2.08;1.98;;;16.20;92.20;;;;;;4974657;28;20438;-71
2021/07/26 07:21:18;;;;;;;2.53;2.40;;;16.10;92.30;;;;;;4975874;28;20054;-71
2021/07/26 07:23:46;;;;;;;2.42;2.33;;;16.00;92.60;;;;;;4976124;28;20026;-71
2021/07/26 07:26:14;;;;;;;2.60;2.50;;;16.00;92.60;;;;;;4975852;28;20023;-71
2021/07/26 07:28:44;;;;;;;2.30;2.20;;;16.00;92.40;;;;;;4975852;28;20105;-71
2021/07/26 07:31:13;;;;;;;2.08;1.88;;;16.00;92.40;;;;;;4975833;28;20034;-69
2021/07/26 07:33:40;;;;;;;2.50;2.30;;;16.00;92.40;;;;;;4975491;28;20031;-70
2021/07/26 07:36:08;;;;;;;2.35;2.25;;;16.00;92.60;;;;;;4974710;28;20109;-71
2021/07/26 07:38:36;;;;;;;2.47;2.38;;;15.90;92.70;;;;;;4974347;28;20077;-71
2021/07/26 07:41:05;;;;;;;2.60;2.40;;;15.80;92.70;;;;;;4975619;28;20026;-70
2021/07/26 07:43:33;;;;;;;2.30;2.20;;;15.80;92.90;;;;;;4975548;28;20026;-71
2021/07/26 07:46:00;;;;;;;3.05;2.17;;;15.80;92.80;;;;;;4975617;28;20033;-71
2021/07/26 07:48:29;;;;;;;2.00;1.90;;;15.80;92.90;;;;;;4974192;28;20034;-70
2021/07/26 07:50:58;;;;;;;2.28;2.17;;;15.80;93.00;;;;;;4975278;28;20034;-71
2021/07/26 07:53:25;;;;;;;2.53;2.38;;;15.70;93.00;;;;;;4975282;28;20027;-71
2021/07/26 07:55:56;;;;;;;2.50;2.30;;;15.80;93.00;;;;;;4975582;28;20479;-71
2021/07/26 07:58:24;;;;;;;2.25;2.15;;;15.80;93.10;;;;;;4975340;28;20456;-71
2021/07/26 08:00:52;;;;;;;2.55;2.45;;;15.80;93.40;;;;;;4975241;28;20046;-70
2021/07/26 08:03:20;;;;;;;2.38;2.28;;;15.70;93.30;;;;;;4973862;28;20439;-71
2021/07/26 08:05:48;;;;;;;3.08;2.88;;;15.70;93.50;;;;;;4974002;28;20035;-70
2021/07/26 08:08:17;;;;;;;2.47;2.38;;;15.70;93.70;;;;;;4973923;28;20069;-70
2021/07/26 08:10:45;;;;;;;2.70;2.55;;;15.60;93.80;;;;;;4974986;28;20027;-71
2021/07/26 08:13:13;;;;;;;2.53;2.33;;;15.40;94.00;;;;;;4974750;28;20566;-71
2021/07/26 08:15:46;;;;;;;2.20;2.00;;;15.30;94.50;;;;;;4974973;28;20023;-71
2021/07/26 08:18:13;;;;;;;2.60;2.50;;;15.20;94.70;;;;;;4975042;28;20026;-71
2021/07/26 08:20:40;;;;;;;2.50;2.30;;;15.10;95.10;;;;;;4975033;28;20023;-72
2021/07/26 08:23:08;;;;;;;2.22;2.13;;;15.00;95.40;;;;;;4974845;28;20476;-72
2021/07/26 08:25:35;;;;;;;2.22;2.10;;;14.90;95.30;;;;;;4974863;28;20038;-71
2021/07/26 08:28:02;;;;;;;2.60;2.40;;;15.00;95.40;;;;;;4973609;28;20518;-72
2021/07/26 08:30:32;;;;;;;2.75;2.55;;;14.80;95.80;;;;;;4974681;28;20037;-71
2021/07/26 08:33:00;;;;;;;2.10;2.00;;;14.70;95.90;;;;;;4974707;28;20495;-71
2021/07/26 08:35:29;;;;;;;2.40;2.30;;;14.70;96.40;;;;;;4974630;28;20023;-72
2021/07/26 08:37:57;;;;;;;2.53;2.42;;;14.70;96.20;;;;;;4974587;28;20479;-69
2021/07/26 08:40:26;;;;;;;2.53;2.30;;;14.80;96.10;;;;;;4974446;28;20390;-71
2021/07/26 08:42:54;;;;;;;2.55;2.45;;;14.90;96.00;;;;;;4974494;28;20038;-71
2021/07/26 08:45:22;;;;;;;2.15;2.05;;;14.90;96.00;;;;;;4972716;28;20031;-71
2021/07/26 08:47:50;;;;;;;2.17;2.08;;;14.90;96.20;;;;;;4974163;28;20029;-71
2021/07/26 08:50:19;;;;;;;2.40;2.17;;;15.00;96.20;;;;;;4974439;28;20037;-71
2021/07/26 08:52:48;;;;;;;2.10;2.00;;;15.00;96.40;;;;;;4974197;28;20110;-72
2021/07/26 08:55:18;;;;;;;2.40;2.30;;;14.90;96.50;;;;;;4972972;28;20026;-71
2021/07/26 08:57:50;;;;;;;2.33;2.22;;;14.80;96.70;;;;;;4974536;28;20027;-70
2021/07/26 09:00:19;;;;;;;2.40;2.30;;;14.80;96.80;;;;;;4974334;28;20015;-70
2021/07/26 09:02:47;;;;;;;2.75;2.40;;;14.80;97.00;;;;;;4974313;28;20034;-71
2021/07/26 09:05:15;;;;;;;2.13;2.03;;;14.90;97.00;;;;;;4973107;28;20034;-71
2021/07/26 09:07:43;;;;;;;2.08;1.98;;;14.80;97.10;;;;;;4974332;28;20030;-70
2021/07/26 09:10:19;;;;;;;2.58;2.10;;;14.80;97.30;;;;;;4973035;28;20467;-71
2021/07/26 09:12:49;;;;;;;2.17;2.08;;;14.80;97.50;;;;;;4972655;28;20569;-70
2021/07/26 09:15:38;;;;;;;2.20;2.10;;;14.70;97.70;;;;;;4972781;28;20023;-69
2021/07/26 09:18:14;;;;;;;2.50;2.30;;;14.70;97.90;;;;;;4974138;28;20098;-69
2021/07/26 09:20:42;;;;;;;2.50;2.40;;;14.50;98.20;;;;;;4974163;28;20372;-69
2021/07/26 09:23:17;;;;;;;2.40;2.20;;;14.40;98.40;;;;;;4973990;28;20394;-69
2021/07/26 09:25:46;;;;;;;2.40;2.30;;;14.40;98.60;;;;;;4974059;28;20542;-69
2021/07/26 09:28:20;;;;;;;2.63;2.42;;;14.50;98.40;;;;;;4974104;28;20037;-69
2021/07/26 09:30:55;;;;;;;2.40;2.20;;;14.40;98.80;;;;;;4974233;28;20042;-70
2021/07/26 09:33:27;;;;;;;2.22;2.10;;;14.40;98.90;;;;;;4972781;28;20026;-70
2021/07/26 09:36:09;;;;;;;2.10;1.88;;;14.40;99.10;;;;;;4974110;28;20120;-70
2021/07/26 09:38:37;;;;;;;3.28;2.10;;;14.30;99.00;;;;;;4973973;28;20031;-71
2021/07/26 09:41:05;;;;;;;2.17;2.00;;;14.40;99.20;;;;;;4972620;28;20557;-71
2021/07/26 09:43:33;;;;;;;1.92;1.83;;;14.40;98.90;;;;;;4972537;28;20023;-71
2021/07/26 09:46:00;;;;;;;2.75;2.38;;;14.40;99.00;;;;;;4972535;28;20026;-72
2021/07/26 09:48:30;;;;;;;2.10;1.90;;;14.40;99.20;;;;;;4973898;28;20113;-72
2021/07/26 09:51:06;;;;;;;2.30;2.10;;;14.40;99.20;;;;;;4973724;28;20420;-72
2021/07/26 09:53:52;;;;;;;2.30;1.90;;;14.40;99.30;;;;;;4973770;28;20030;-73
2021/07/26 09:56:19;;;;;;;2.10;2.00;;;14.30;99.40;;;;;;4972554;28;20022;-72
2021/07/26 09:58:47;;;;;;;2.05;1.80;;;14.50;99.40;;;;;;4973758;28;20475;-74
2021/07/26 10:01:15;;;;;;;2.90;1.90;;;14.50;99.40;;;;;;4977376;28;20487;-73
2021/07/26 10:03:43;;;;;;;2.10;2.00;;;14.50;99.40;;;;;;4977371;28;20054;-72
2021/07/26 10:06:13;;;;;;;2.33;2.17;;;14.60;99.30;;;;;;4977252;28;20031;-73
2021/07/26 10:08:43;;;;;;;2.10;2.00;;;14.70;99.10;;;;;;4977251;28;20110;-72
2021/07/26 10:11:12;;;;;;;3.50;1.60;;;14.70;99.20;;;;;;4975483;28;20458;-74
2021/07/26 10:13:49;;;;;;;3.05;1.80;;;14.70;98.90;;;;;;4975664;28;20039;-73
2021/07/26 10:16:18;;;;;;;2.65;1.90;;;14.70;98.90;;;;;;4977463;28;20114;-72
2021/07/26 10:18:49;;;;;;;3.03;2.00;;;14.70;99.20;;;;;;4977078;28;20033;-72
2021/07/26 10:21:19;;;;;;;2.53;2.33;;;14.60;99.10;;;;;;4977044;28;20030;-72
2021/07/26 10:24:01;;;;;;;2.50;2.30;;;14.60;99.00;;;;;;4976916;28;20027;-71
2021/07/26 10:26:43;;;;;;;2.50;2.30;;;14.50;99.10;;;;;;4975821;28;20487;-72
2021/07/26 10:29:10;;;;;;;2.75;2.50;;;14.50;98.90;;;;;;4976925;28;20491;-72
2021/07/26 10:31:38;;;;;;;1.98;1.88;;;14.60;98.60;;;;;;4976760;28;20364;-72
2021/07/26 10:34:11;;;;;;;2.53;2.28;;;14.60;98.70;;;;;;4975498;28;20395;-71
2021/07/26 10:36:44;;;;;;;2.40;2.25;;;14.60;98.70;;;;;;4975607;28;20023;-73
2021/07/26 10:39:15;;;;;;;2.40;2.20;;;14.50;98.80;;;;;;4976587;28;20033;-73
2021/07/26 10:41:46;;;;;;;2.30;2.20;;;14.50;98.80;;;;;;4976795;28;20065;-73
2021/07/26 10:44:19;;;;;;;2.40;2.20;;;14.50;98.80;;;;;;4976555;28;20027;-72
2021/07/26 10:47:06;;;;;;;2.35;2.25;;;14.40;99.20;;;;;;4975381;28;20030;-70
2021/07/26 10:49:43;;;;;;;2.15;2.00;;;14.30;99.10;;;;;;4976763;28;20038;-70
2021/07/26 10:52:22;;;;;;;3.22;2.00;;;14.20;99.30;;;;;;4976477;28;20023;-72
2021/07/26 10:54:50;;;;;;;2.13;1.90;;;14.10;99.70;;;;;;4976523;28;20019;-72
2021/07/26 10:57:40;;;;;;;2.22;2.10;;;14.00;99.90;;;;;;4976450;28;20106;-73
2021/07/26 11:00:13;;;;;;;3.08;2.38;;;14.00;99.80;;;;;;4974900;28;20435;-71
2021/07/26 11:02:43;;;;;;;2.58;2.38;;;13.90;99.90;;;;;;4974914;28;20023;-71
2021/07/26 11:05:29;;;;;;;4.85;2.45;;;13.80;99.90;;;;;;4976234;28;20080;-71
2021/07/26 11:08:15;;;;;;;3.55;2.40;;;13.80;99.90;;;;;;4974884;28;20117;-73
2021/07/26 11:10:53;;;;;;;2.60;2.40;;;13.70;99.90;;;;;;4975904;28;20062;-72
2021/07/26 11:13:21;;;;;;;2.40;2.20;;;13.80;99.90;;;;;;4975948;28;20133;-71
2021/07/26 11:15:56;;;;;;;2.15;2.00;;;13.80;99.90;;;;;;4976125;28;20085;-71
2021/07/26 11:18:44;;;;;;;2.42;2.10;;;13.90;99.90;;;;;;4975940;28;20027;-70
2021/07/26 11:21:14;;;;;;;2.40;2.00;;;14.00;99.90;;;;;;4976091;28;20054;-70
2021/07/26 11:23:53;;;;;;;2.22;2.13;;;14.00;99.80;;;;;;4975923;28;20052;-71
2021/07/26 11:26:20;;;;;;;2.38;2.10;;;14.00;99.80;;;;;;4975984;28;20026;-70
2021/07/26 11:28:49;;;;;;;2.78;2.20;;;14.10;99.70;;;;;;4975781;28;20547;-71
2021/07/26 11:31:30;;;;;;;3.25;2.20;;;14.20;99.60;;;;;;4974540;28;20089;-71
2021/07/26 11:34:15;;;;;;;2.35;2.03;;;14.10;99.80;;;;;;4975882;28;20089;-70
2021/07/26 11:37:16;;;;;;;3.30;2.15;;;14.00;99.90;;;;;;4975614;28;20061;-70
2021/07/26 11:39:49;;;;;;;2.55;2.35;;;14.00;99.90;;;;;;4975583;28;20035;-70
2021/07/26 11:42:19;;;;;;;2.75;2.50;;;14.00;99.90;;;;;;4975509;28;20015;-71
2021/07/26 11:44:49;;;;;;;2.53;2.40;;;13.90;99.90;;;;;;4976118;28;20026;-70
2021/07/26 11:47:43;;;;;;;2.47;2.37;;;13.90;99.90;;;;;;4974099;28;20051;-71
2021/07/26 11:50:20;;;;;;;2.50;2.30;;;13.90;99.90;;;;;;4949022;28;20414;-70
2021/07/26 11:52:55;;;;;;;2.80;2.60;;;14.00;99.90;;;;;;4975394;28;20027;-72
2021/07/26 11:55:28;;;;;;;2.50;2.30;;;14.10;99.70;;;;;;4973934;28;20022;-70
2021/07/26 11:58:01;;;;;;;2.90;2.70;;;14.10;99.70;;;;;;4975456;28;20105;-71
2021/07/26 12:00:32;;;;;;;3.00;2.80;;;14.20;99.50;;;;;;4975246;28;20028;-70
2021/07/26 12:02:59;;;;;;;2.92;2.72;;;14.20;99.40;;;;;;4975247;28;20038;-70
2021/07/26 12:05:31;;;;;;;2.67;2.47;;;14.20;99.40;;;;;;4975427;28;20065;-72
2021/07/26 12:08:12;;;;;;;2.80;2.60;;;14.10;99.50;;;;;;4975106;28;20031;-71
2021/07/26 12:10:40;;;;;;;2.70;2.50;;;14.10;99.60;;;;;;4975110;28;20444;-72
2021/07/26 12:13:08;;;;;;;3.30;3.00;;;14.10;99.70;;;;;;4975094;28;20047;-71
2021/07/26 12:15:37;;;;;;;3.17;2.90;;;14.10;99.60;;;;;;4974972;28;20480;-71
2021/07/26 12:18:10;;;;;;;2.33;2.22;;;14.10;99.50;;;;;;4973656;28;20110;-71
2021/07/26 12:20:37;;;;;;;2.58;2.40;;;14.10;99.70;;;;;;4973625;28;20022;-71
2021/07/26 12:23:31;;;;;;;2.95;2.70;;;14.00;99.80;;;;;;4974361;28;20034;-73
2021/07/26 12:26:09;;;;;;;2.67;2.58;;;14.00;99.90;;;;;;4972179;28;20039;-74
2021/07/26 12:28:41;;;;;;;2.90;2.70;;;14.00;99.80;;;;;;4974862;28;20051;-71
2021/07/26 12:31:29;;;;;;;2.90;2.70;;;14.00;99.90;;;;;;4973508;28;20109;-70
2021/07/26 12:34:18;;;;;;;2.80;2.58;;;13.90;99.80;;;;;;4974700;28;20038;-71
2021/07/26 12:36:46;;;;;;;3.20;2.38;;;13.90;99.90;;;;;;4974619;28;20019;-71
2021/07/26 12:39:14;;;;;;;2.65;2.45;;;13.90;99.90;;;;;;4974603;28;20482;-72
2021/07/26 12:41:45;;;;;;;3.03;2.72;;;13.90;99.90;;;;;;4974597;28;20025;-72
2021/07/26 12:44:34;;;;;;;2.90;2.55;;;13.90;99.90;;;;;;4974614;28;20055;-71
2021/07/26 12:47:01;;;;;;;2.90;2.70;;;13.90;99.90;;;;;;4973315;28;20031;-71
2021/07/26 12:49:29;;;;;;;3.30;3.10;;;13.80;99.90;;;;;;4974413;28;20059;-71
2021/07/26 12:51:56;;;;;;;3.17;2.95;;;13.80;99.90;;;;;;4973239;28;20031;-70
2021/07/26 12:54:24;;;;;;;4.03;2.90;;;13.80;99.90;;;;;;4973162;28;20054;-71
2021/07/26 12:56:51;;;;;;;2.80;2.70;;;13.70;99.90;;;;;;4974407;28;20026;-72
2021/07/26 12:59:19;;;;;;;3.03;2.90;;;13.70;99.90;;;;;;4974188;28;20388;-73
2021/07/26 13:01:50;;;;;;;3.50;3.20;;;13.70;99.90;;;;;;4974354;28;20018;-73
2021/07/26 13:04:17;;;;;;;3.33;2.83;;;13.60;99.90;;;;;;4974304;28;20541;-71
2021/07/26 13:06:44;;;;;;;3.10;2.90;;;13.60;99.90;;;;;;4974250;28;20022;-71
2021/07/26 13:09:12;;;;;;;3.00;2.80;;;13.60;99.90;;;;;;4973074;28;20023;-72
2021/07/26 13:11:39;;;;;;;3.35;2.90;;;13.60;99.90;;;;;;4973047;28;20043;-71
2021/07/26 13:14:06;;;;;;;2.95;2.80;;;13.60;99.90;;;;;;4972731;28;20031;-72
2021/07/26 13:16:34;;;;;;;3.13;2.70;;;13.60;99.90;;;;;;4974045;28;20073;-72
2021/07/26 13:19:01;;;;;;;3.05;2.85;;;13.50;99.90;;;;;;4972860;28;20023;-71
2021/07/26 13:21:28;;;;;;;3.13;2.92;;;13.50;99.90;;;;;;4974224;28;20026;-71
2021/07/26 13:23:56;;;;;;;4.00;3.30;;;13.40;99.90;;;;;;4974120;28;20364;-71
2021/07/26 13:26:23;;;;;;;2.80;2.70;;;13.40;99.90;;;;;;4973980;28;20030;-71
2021/07/26 13:28:50;;;;;;;3.20;3.00;;;13.30;99.90;;;;;;4972757;28;20030;-72
2021/07/26 13:31:18;;;;;;;3.45;3.17;;;13.30;99.90;;;;;;4972591;28;20034;-72
2021/07/26 13:33:45;;;;;;;3.20;3.00;;;13.20;99.90;;;;;;4974229;28;20037;-71
2021/07/26 13:36:13;;;;;;;3.47;2.90;;;13.20;99.90;;;;;;4978220;28;20019;-71
2021/07/26 13:38:40;;;;;;;3.03;2.80;;;13.20;99.90;;;;;;4976531;28;20434;-71
2021/07/26 13:41:07;;;;;;;3.05;2.85;;;13.10;99.90;;;;;;4977836;28;20073;-71